x

South Brooks (46132) Wave Buoy

12:00am - Fri 24th Feb 2017 All times are PST. -8 hours from GMT.

  • Sig Wave height 5.6ft
  • Peak Period 16s
  • Wind
    2mph, 9mph gusts
  • Sea Temp 47°f
  • Air Temp 41°f
  • Sea Pressure 1019.9mb
  • South Brooks
  • South Brooks

More Historic Weather Station data

Upgrade to MSW Pro to gain access to the past 30 days of data for over 8000 Wavebouys and Weather Stations around the globe.

Join Pro

Comparision Forecast

View Surf forecast
   
Fri 02/24 12:00am 5.5ft 16s 2 9 mph 1019.9mb 47f 41f
Thu 02/23 11:00pm 6ft 15s 9 16 mph 1020.5mb 47f 40f
10:00pm 6ft 16s 9 18 mph 1021mb 47f 39f
9:00pm 6ft 16s 11 18 mph 1021.7mb 47f 39f
8:00pm 5.5ft 16s 11 18 mph 1022.3mb 47f 40f
7:00pm 6.5ft 16s 13 18 mph 1022.9mb 47f 40f
6:00pm 6ft 16s 9 18 mph 1023.6mb 47f 40f
5:00pm 6ft 9s 11 18 mph 1024mb 47f 42f
4:00pm 6ft 16s 9 18 mph 1024.3mb 47f 43f
3:00pm 6ft 10s 7 16 mph 1024.8mb 47f 42f
2:00pm 5.5ft 9s 11 20 mph 1024.9mb 47f 42f
1:00pm 6ft 10s 11 18 mph 1024.9mb 47f 43f
12:00pm 6ft 9s 13 20 mph 1025.4mb 47f 43f
11:00am 6ft 9s 16 22 mph 1025.8mb 47f 43f
10:00am 6ft 10s 13 20 mph 1026.1mb 47f 42f
9:00am 7ft 10s 13 22 mph 1025.9mb 47f 42f
8:00am 6.5ft 10s 9 18 mph 1025.5mb 47f 42f
7:00am 6ft 9s 7 11 mph 1025.3mb 47f 42f
6:00am 7ft 9s 7 16 mph 1025.2mb 47f 42f
5:00am 7ft 10s 4 11 mph 1025.3mb 47f 42f
4:00am 7ft 10s 11 20 mph 1025.3mb 47f 42f
3:00am 7ft 8s 7 16 mph 1025.5mb 47f 42f
2:00am 7ft 8s 13 20 mph 1025.4mb 47f 42f
Wed 02/22 2:00am 6ft 15s  -  7 mph 1021.3mb 47f 41f
1:00am 6ft 10s 2 7 mph 1021.5mb 47f 40f
12:00am 6ft 7s  -  4 mph 1021.2mb 47f 40f
Tue 02/21 11:00pm 6.5ft 11s 7 18 mph 1021mb 47f 38f
10:00pm 6ft 15s 4 16 mph 1020.4mb 47f 43f
9:00pm 7ft 11s  -  2 mph 1020.2mb 47f 40f
8:00pm 6ft 11s 9 16 mph 1019.5mb 47f 44f
7:00pm 6.5ft 10s 11 18 mph 1019.1mb 47f 44f
6:00pm 6ft 10s 9 13 mph 1018.6mb 47f 43f
5:00pm 6.5ft 11s 7 11 mph 1018mb 47f 43f
4:00pm 5ft 11s 22 31 mph 1017.2mb 47f 43f
3:00pm 5ft 10s 11 18 mph 1016.9mb 47f 44f
2:00pm 6ft 12s 11 18 mph 1016.2mb 47f 44f
1:00pm 6ft 11s 7 18 mph 1015.8mb 47f 41f
12:00pm 5.5ft 10s 2 9 mph 1015.6mb 47f 42f
11:00am 6ft 11s 7 13 mph 1014.9mb 47f 42f
10:00am 6ft 11s 16 27 mph 1013.5mb 47f 44f
9:00am 6.5ft 12s 9 18 mph 1012.8mb 47f 43f
8:00am 6ft 11s 9 16 mph 1012mb 47f 43f
7:00am 6ft 12s 2 9 mph 1011.4mb 47f 43f
6:00am 5.5ft 12s 7 18 mph 1010.9mb 47f 43f
5:00am 6ft 11s 4 11 mph 1010.6mb 47f 44f
4:00am 6ft 12s 2 7 mph 1010.2mb 47f 44f
3:00am 5.5ft 12s 2 16 mph 1010.1mb 47f 43f
2:00am 5ft 11s  -  4 mph 1009.7mb 47f 44f
1:00am 6ft 11s 2 9 mph 1009.2mb 47f 44f
12:00am 6ft 12s 4 13 mph 1008.6mb 47f 44f
Mon 02/20 11:00pm 6.5ft 12s 2 4 mph 1008.3mb 47f 44f
10:00pm 6ft 12s 2 7 mph 1007.9mb 47f 44f
9:00pm 7ft 12s 2 7 mph 1007.8mb 47f 44f
8:00pm 6.5ft 12s  -  4 mph 1007.5mb 47f 44f
7:00pm 7ft 13s 2 7 mph 1007.2mb 47f 44f
6:00pm 7ft 12s 2 9 mph 1006.9mb 47f 44f
5:00pm 7ft 12s 4 11 mph 1006.6mb 47f 44f
4:00pm 7ft 14s 9 11 mph 1006mb 47f 44f
3:00pm 8ft 13s 9 13 mph 1005.4mb 47f 44f
2:00pm 8ft 13s 9 13 mph 1004.8mb 47f 44f
1:00pm 7ft 14s 7 11 mph 1004.6mb 47f 44f
12:00pm 8ft 13s 7 11 mph 1004.3mb 47f 44f
11:00am 8ft 13s 4 9 mph 1003.6mb 47f 44f
10:00am 8.5ft 14s 2 7 mph 1002.8mb 47f 44f